Airfield :
LOGIN :

Register | Disclaimer

   EN    FR    IT 

 










Legend :    VFR   Marginal VFR   IFR   Intensive IFR   Very Intensive IFR
Visi :
Ceiling :
>= 8 km
>= 3000ft
5 to 8 km
1000 to 3000 ft
1500m to 5 km
500 to 1000 ft
800 to 1500m
200 to 500 ft
< 800m
< 200 ft
Symbols :   Thunderstorms  Fog  Heavy snow  Heavy precipitations  Wind > 20 kt
SIGMETs :     Misc.  Thunderstorms  Icing  Turbulence  Mountain Waves  Volcanic Ashes







- Airport Elevation : -11 ft
- IATA code : AMS


EHAM - Amsterdam Schiphol

CURRENT METAR :
  • 182055Z 06011KT 040V100 9999 BKN021 05/02 Q1028 NOSIG

EXPIRED METARs :
  • 182025Z 06012KT 030V090 9999 SCT021 05/02 Q1028 NOSIG
  • 181955Z 06014KT CAVOK 04/01 Q1028 NOSIG
  • 181925Z 06013KT 030V090 CAVOK 04/00 Q1028 NOSIG
  • 181855Z 06012KT CAVOK 04/M01 Q1028 NOSIG
  • 181825Z 05010KT 020V080 CAVOK 04/M03 Q1028 NOSIG

TAF TAF EHAM
Valid from the 18 at 18:00 until the 20 at 00:00 UTC


181702Z 1818/1924 06013KT CAVOK
BECMG 1820/1823 SCT014 BKN017
PROB40
TEMPO 1823/1912 6000 -RADZ SCT010 BKN014
BECMG 1908/1911 06017G27KT SCT025
No reported NOTAMs for that airfield.



MET'MAP, your aeronautical weather chart ! - Copyright ORBIFLY December 2007 - Disclaimer

ORBIFLY MET'MAP TEAM :

Programming & Development : Alexandra Zaïnal
Concept & Development : Baudouin d'Aumeries
Co-Development & Prog : Marc-Olivier Méhu
Technical & hardware support : Manuel Goepfert

Contact : metmap@orbifly.com




SOURCES & CREDITS :

   NOAA